Weather at Yeager Airport

Public forecast

Using degrees Fahrenheit for public forecast. Weather courtesy of forecast.io.

Current aviation weather report (METAR) for Yeager Airport

2024/06/16 10:54 (retrieved 1 hour ago)

KCRW 161054Z COR 00000KT 10SM CLR 14/12 A3011 RMK AO2 SLP188 T01440122

Aviation forecast (TAF) for Yeager Airport

2024/06/16 06:22 (retrieved 6 hours ago)

TAF KCRW 160520Z 1606/1706 00000KT P6SM SCT250